Time;durP1;ratioP1;P1;durP2;ratioP2;P2;SDS_P1;SDS_P2;PMS_P1;PMS_P2;Temp;Humidity;BMP_temperature;BMP_pressure;BME280_temperature;BME280_humidity;BME280_pressure;Samples;Min_cycle;Max_cycle;Signal;HPM_P1;HPM_P2
2023/09/15 09:05:48;;;;;;;4.30;2.33;;;24.90;99.90;;;;;;5108258;27;21059;-78
2023/09/15 09:08:15;;;;;;;4.72;2.78;;;25.10;99.90;;;;;;5107283;28;20284;-78
2023/09/15 09:10:42;;;;;;;2.38;1.80;;;24.60;99.90;;;;;;5104921;28;20228;-81
2023/09/15 09:13:09;;;;;;;2.10;2.00;;;25.30;99.90;;;;;;5088296;28;20237;-88
2023/09/15 09:15:37;;;;;;;3.67;2.45;;;25.40;99.90;;;;;;5087999;28;20233;-77
2023/09/15 09:18:14;;;;;;;2.90;2.17;;;25.50;99.90;;;;;;5087922;28;20343;-81
2023/09/15 09:20:43;;;;;;;4.30;2.65;;;25.20;99.90;;;;;;5107730;28;20208;-83
2023/09/15 09:23:10;;;;;;;2.75;2.53;;;25.70;99.90;;;;;;5103380;28;20230;-82
2023/09/15 09:25:39;;;;;;;2.78;2.58;;;26.20;99.90;;;;;;5087528;28;20210;-79
2023/09/15 09:28:07;;;;;;;3.15;2.33;;;26.30;99.90;;;;;;5090416;28;20204;-83
2023/09/15 09:30:33;;;;;;;3.53;2.55;;;27.00;99.90;;;;;;5103959;28;20247;-68
2023/09/15 09:33:01;;;;;;;3.08;2.53;;;27.10;99.90;;;;;;5100372;28;20605;-77
2023/09/15 09:35:28;;;;;;;2.63;2.42;;;27.30;99.90;;;;;;5098624;28;20300;-79
2023/09/15 09:37:57;;;;;;;5.55;2.53;;;26.50;99.90;;;;;;5103437;28;20236;-81
2023/09/15 09:40:24;;;;;;;2.60;2.40;;;26.50;99.90;;;;;;5090188;28;20304;-81
2023/09/15 09:42:51;;;;;;;3.40;2.42;;;26.70;99.90;;;;;;5092691;28;20255;-78
2023/09/15 09:45:18;;;;;;;4.45;2.50;;;26.80;99.90;;;;;;5104119;28;20727;-78
2023/09/15 09:47:46;;;;;;;3.10;2.80;;;26.40;99.90;;;;;;5102789;28;20281;-81
2023/09/15 09:50:13;;;;;;;4.72;3.17;;;26.20;99.90;;;;;;5089249;28;20205;-80
2023/09/15 09:52:41;;;;;;;4.30;2.88;;;25.90;99.90;;;;;;5106367;28;20753;-76
2023/09/15 09:55:10;;;;;;;4.00;2.85;;;25.90;99.90;;;;;;5091085;28;20245;-76
2023/09/15 09:57:38;;;;;;;3.85;2.83;;;25.50;99.90;;;;;;5105025;28;20672;-77
2023/09/15 10:00:09;;;;;;;2.63;2.42;;;25.70;99.90;;;;;;5101872;28;20194;-77
2023/09/15 10:02:36;;;;;;;4.30;2.67;;;27.10;99.90;;;;;;5104973;28;20208;-76
2023/09/15 10:05:03;;;;;;;3.28;2.97;;;28.90;99.90;;;;;;5107244;28;20268;-76
2023/09/15 10:07:31;;;;;;;4.35;3.08;;;30.00;99.90;;;;;;5106657;28;20201;-77
2023/09/15 10:09:59;;;;;;;3.95;3.35;;;31.20;99.90;;;;;;5095851;28;20296;-77
2023/09/15 10:12:27;;;;;;;3.42;3.13;;;31.20;99.90;;;;;;5086376;28;20248;-76
2023/09/15 10:14:55;;;;;;;2.92;2.72;;;30.40;99.90;;;;;;5085283;28;20229;-77
2023/09/15 10:17:23;;;;;;;3.50;3.20;;;30.60;99.90;;;;;;5082099;28;20293;-77
2023/09/15 10:19:52;;;;;;;3.20;2.90;;;31.40;99.90;;;;;;5077484;28;20289;-85
2023/09/15 10:22:19;;;;;;;3.80;3.45;;;29.30;99.90;;;;;;5086252;28;20225;-88
2023/09/15 10:24:47;;;;;;;4.85;2.58;;;28.20;99.90;;;;;;5087425;28;20719;-86
2023/09/15 10:27:15;;;;;;;4.90;2.88;;;27.60;99.90;;;;;;5088455;28;20209;-86
2023/09/15 10:29:47;;;;;;;3.38;2.95;;;27.40;99.90;;;;;;5085222;28;20214;-82
2023/09/15 10:32:17;;;;;;;7.45;6.72;;;27.40;99.90;;;;;;5073480;28;20293;-79
2023/09/15 10:34:44;;;;;;;6.72;6.13;;;27.20;99.90;;;;;;5073451;28;20666;-79
2023/09/15 10:37:12;;;;;;;3.28;3.08;;;27.30;99.90;;;;;;5078393;28;20229;-84
2023/09/15 10:39:40;;;;;;;3.53;3.22;;;26.80;99.90;;;;;;5086256;28;20206;-82
2023/09/15 10:42:09;;;;;;;3.90;3.55;;;26.60;99.90;;;;;;5080536;28;20274;-79
2023/09/15 10:44:36;;;;;;;4.53;3.08;;;26.90;99.90;;;;;;5090664;28;20236;-79
2023/09/15 10:47:16;;;;;;;3.65;3.13;;;27.20;99.90;;;;;;5084042;28;20304;-85
2023/09/15 10:49:50;;;;;;;2.95;2.75;;;27.00;99.90;;;;;;5091727;28;20292;-85
2023/09/15 10:52:18;;;;;;;3.65;3.35;;;26.70;99.90;;;;;;5088632;28;20208;-82
2023/09/15 10:54:45;;;;;;;2.90;2.70;;;26.40;99.90;;;;;;5081755;28;20206;-80
2023/09/15 10:57:12;;;;;;;3.30;3.10;;;26.10;99.90;;;;;;5085276;28;20216;-81
2023/09/15 10:59:39;;;;;;;3.20;2.90;;;25.90;99.90;;;;;;5082151;28;20209;-79
2023/09/15 11:02:09;;;;;;;3.40;3.10;;;25.90;99.90;;;;;;5084318;28;20240;-80
2023/09/15 11:04:36;;;;;;;4.60;3.17;;;26.10;99.90;;;;;;5092031;28;20276;-82
2023/09/15 11:07:07;;;;;;;4.60;3.38;;;26.20;99.90;;;;;;5093242;28;20237;-80
2023/09/15 11:09:34;;;;;;;4.70;2.95;;;26.70;99.90;;;;;;5092883;28;20202;-80
2023/09/15 11:12:02;;;;;;;3.85;3.55;;;27.00;99.90;;;;;;5072722;28;20213;-78
2023/09/15 11:14:29;;;;;;;4.40;2.85;;;27.50;99.90;;;;;;5071812;28;20213;-82
2023/09/15 11:16:57;;;;;;;2.63;2.50;;;27.90;99.90;;;;;;5080753;28;20707;-85
2023/09/15 11:19:30;;;;;;;3.22;2.92;;;27.90;99.90;;;;;;5092255;28;20213;-83
2023/09/15 11:21:57;;;;;;;3.03;2.83;;;28.10;99.90;;;;;;5092594;28;20860;-82
2023/09/15 11:24:24;;;;;;;3.78;2.83;;;27.90;99.90;;;;;;5092358;28;20326;-83
2023/09/15 11:26:52;;;;;;;3.78;3.08;;;27.80;99.90;;;;;;5082122;28;20305;-77
2023/09/15 11:29:25;;;;;;;3.25;3.05;;;27.70;99.90;;;;;;5087050;28;20300;-82
2023/09/15 11:31:53;;;;;;;9.80;2.90;;;27.70;99.90;;;;;;5091052;28;20756;-79
2023/09/15 11:34:21;;;;;;;4.13;3.40;;;28.10;99.90;;;;;;5091505;28;20233;-72
2023/09/15 11:36:51;;;;;;;4.00;3.63;;;28.20;99.90;;;;;;5090979;28;20653;-81
2023/09/15 11:39:18;;;;;;;3.22;2.92;;;28.00;99.90;;;;;;5092333;28;20292;-80
2023/09/15 11:41:53;;;;;;;5.78;2.70;;;28.10;99.90;;;;;;5092070;28;20208;-78
2023/09/15 11:44:21;;;;;;;3.55;3.25;;;28.10;99.90;;;;;;5091437;28;20703;-75
2023/09/15 11:46:49;;;;;;;4.05;2.92;;;28.20;99.90;;;;;;5092365;28;20248;-83
2023/09/15 11:49:16;;;;;;;3.60;3.30;;;28.20;99.90;;;;;;5092190;28;20229;-77
2023/09/15 11:51:46;;;;;;;4.50;2.50;;;28.30;99.90;;;;;;5091685;28;20708;-78
2023/09/15 11:54:14;;;;;;;4.15;2.28;;;28.40;99.90;;;;;;5091847;28;20585;-81
2023/09/15 11:56:41;;;;;;;2.97;2.67;;;28.40;99.90;;;;;;5091791;28;20233;-80
2023/09/15 11:59:08;;;;;;;4.03;2.88;;;28.40;99.90;;;;;;5091882;28;20237;-75
2023/09/15 12:01:36;;;;;;;3.25;2.38;;;28.40;99.90;;;;;;5091778;28;20253;-77
2023/09/15 12:04:04;;;;;;;3.28;3.08;;;28.40;99.90;;;;;;5091793;28;20433;-77
2023/09/15 12:06:32;;;;;;;5.57;3.17;;;28.60;99.90;;;;;;5089174;28;20201;-78
2023/09/15 12:08:59;;;;;;;2.25;2.13;;;28.50;99.90;;;;;;5091270;28;20205;-76
2023/09/15 12:11:27;;;;;;;3.17;2.80;;;28.50;99.90;;;;;;5091213;28;20244;-77
2023/09/15 12:13:56;;;;;;;3.13;2.75;;;28.50;99.90;;;;;;5091537;28;20237;-78
2023/09/15 12:16:27;;;;;;;3.05;2.83;;;28.70;99.90;;;;;;5091342;28;20206;-78
2023/09/15 12:18:55;;;;;;;5.10;2.60;;;28.40;99.90;;;;;;5091080;28;20202;-75
2023/09/15 12:21:24;;;;;;;4.13;2.97;;;28.60;99.90;;;;;;5090402;28;20248;-76
2023/09/15 12:23:54;;;;;;;4.68;2.92;;;28.70;99.90;;;;;;5090883;28;20254;-83
2023/09/15 12:26:21;;;;;;;2.60;2.40;;;28.60;99.90;;;;;;5091408;28;20617;-76
2023/09/15 12:28:49;;;;;;;2.72;2.53;;;28.70;99.90;;;;;;5091251;28;20225;-80
2023/09/15 12:31:18;;;;;;;3.08;2.65;;;28.60;99.90;;;;;;5090281;28;20288;-78
2023/09/15 12:33:45;;;;;;;4.00;2.42;;;28.50;99.90;;;;;;5091190;28;20205;-77
2023/09/15 12:36:13;;;;;;;2.75;2.55;;;28.60;99.90;;;;;;5091237;28;20278;-76
2023/09/15 12:38:40;;;;;;;2.60;2.05;;;28.70;99.90;;;;;;5090610;28;20209;-78
2023/09/15 12:41:08;;;;;;;4.82;2.50;;;28.80;99.90;;;;;;5091691;28;20202;-80
2023/09/15 12:43:35;;;;;;;2.72;2.53;;;28.70;99.90;;;;;;5090773;28;20577;-82
2023/09/15 12:46:04;;;;;;;4.80;3.00;;;28.80;99.90;;;;;;5091250;28;20267;-81
2023/09/15 12:48:31;;;;;;;2.65;2.45;;;28.70;99.90;;;;;;5090741;28;20209;-77
2023/09/15 12:50:58;;;;;;;4.15;2.67;;;28.80;99.90;;;;;;5084446;28;20608;-77
2023/09/15 12:53:25;;;;;;;3.58;2.65;;;28.90;99.90;;;;;;5075517;28;20233;-77
2023/09/15 12:55:53;;;;;;;2.70;2.20;;;28.70;99.90;;;;;;5072148;28;20208;-76
2023/09/15 12:58:20;;;;;;;2.97;2.67;;;28.50;99.90;;;;;;5090962;28;20419;-74
2023/09/15 13:00:46;;;;;;;2.75;2.55;;;28.40;99.90;;;;;;5090885;28;20237;-77
2023/09/15 13:03:15;;;;;;;2.50;2.08;;;28.40;99.90;;;;;;5090757;28;20311;-76
2023/09/15 13:05:42;;;;;;;3.30;2.50;;;28.50;99.90;;;;;;5090711;28;20785;-76
2023/09/15 13:08:08;;;;;;;2.35;2.10;;;28.70;99.90;;;;;;5091113;28;20679;-79
2023/09/15 13:10:35;;;;;;;2.67;2.25;;;28.60;99.90;;;;;;5090702;28;20284;-78
2023/09/15 13:13:03;;;;;;;3.20;1.90;;;28.50;99.90;;;;;;5091054;28;20284;-80
2023/09/15 13:15:30;;;;;;;2.58;2.38;;;28.60;99.90;;;;;;5090451;28;20205;-76
2023/09/15 13:17:57;;;;;;;5.20;2.83;;;28.80;99.90;;;;;;5091086;28;20209;-81
2023/09/15 13:20:25;;;;;;;2.70;2.50;;;28.90;99.90;;;;;;5090732;28;20229;-78
2023/09/15 13:22:52;;;;;;;2.95;2.70;;;28.80;99.90;;;;;;5091050;28;20232;-77
2023/09/15 13:25:19;;;;;;;4.78;2.75;;;29.00;99.90;;;;;;5090775;28;20264;-82
2023/09/15 13:27:46;;;;;;;2.78;2.58;;;29.00;99.90;;;;;;5091423;28;20240;-84
2023/09/15 13:30:14;;;;;;;5.88;3.28;;;29.00;99.90;;;;;;5091114;28;20245;-84
2023/09/15 13:32:43;;;;;;;4.20;2.47;;;29.00;99.90;;;;;;5084358;28;20263;-80
2023/09/15 13:35:10;;;;;;;3.95;3.08;;;28.80;99.90;;;;;;5075405;28;20198;-78
2023/09/15 13:37:39;;;;;;;4.05;2.45;;;28.50;99.90;;;;;;5086520;28;20681;-78
2023/09/15 13:40:06;;;;;;;4.95;2.50;;;28.80;99.90;;;;;;5090477;28;20202;-74
2023/09/15 13:42:35;;;;;;;4.45;3.03;;;29.00;99.90;;;;;;5090447;28;20197;-81
2023/09/15 13:45:03;;;;;;;3.33;2.25;;;29.00;99.90;;;;;;5090662;28;20272;-79
2023/09/15 13:47:32;;;;;;;3.05;2.20;;;28.70;99.90;;;;;;5090454;28;20209;-78
2023/09/15 13:50:00;;;;;;;2.53;2.08;;;28.60;99.90;;;;;;5090587;28;20205;-79
2023/09/15 13:52:27;;;;;;;2.25;2.05;;;28.70;99.90;;;;;;5093977;28;20205;-81
2023/09/15 13:54:55;;;;;;;4.53;2.38;;;28.70;99.90;;;;;;5078612;28;20670;-79
2023/09/15 13:57:23;;;;;;;2.38;2.17;;;28.80;99.90;;;;;;5072674;28;20237;-80
2023/09/15 13:59:51;;;;;;;5.93;3.13;;;28.70;99.90;;;;;;5073904;28;20606;-79
2023/09/15 14:02:18;;;;;;;2.90;2.60;;;28.80;99.90;;;;;;5078410;28;20206;-83
2023/09/15 14:04:48;;;;;;;2.58;2.17;;;28.70;99.90;;;;;;5094017;28;20263;-81
2023/09/15 14:07:15;;;;;;;3.13;2.75;;;28.70;99.90;;;;;;5085118;28;20206;-82
2023/09/15 14:09:41;;;;;;;3.05;2.15;;;28.80;99.90;;;;;;5073753;28;20300;-83
2023/09/15 14:12:10;;;;;;;3.70;2.40;;;28.80;99.90;;;;;;5074020;28;20233;-84
2023/09/15 14:14:37;;;;;;;5.75;2.95;;;28.90;99.90;;;;;;5084119;28;20653;-78
2023/09/15 14:17:06;;;;;;;3.00;2.50;;;28.80;99.90;;;;;;5073889;28;20264;-82
2023/09/15 14:19:33;;;;;;;4.82;2.72;;;28.70;99.90;;;;;;5095348;28;20208;-78
2023/09/15 14:22:00;;;;;;;3.53;3.17;;;28.60;99.90;;;;;;5113765;28;20239;-77
2023/09/15 14:24:29;;;;;;;2.53;2.33;;;28.50;99.90;;;;;;5113070;28;20243;-77
2023/09/15 14:26:57;;;;;;;3.92;2.67;;;28.60;99.90;;;;;;5094183;28;20269;-78
2023/09/15 14:29:25;;;;;;;2.83;2.63;;;28.50;99.90;;;;;;5093137;28;20695;-80
2023/09/15 14:31:52;;;;;;;2.70;2.50;;;28.50;99.90;;;;;;5093735;28;20229;-77
2023/09/15 14:34:19;;;;;;;3.13;2.53;;;28.40;99.90;;;;;;5092030;28;20241;-78
2023/09/15 14:36:46;;;;;;;2.60;2.40;;;28.10;99.90;;;;;;5073325;28;20248;-78
2023/09/15 14:39:14;;;;;;;3.80;2.63;;;28.10;99.90;;;;;;5073420;28;20237;-79
2023/09/15 14:41:41;;;;;;;3.20;2.90;;;28.10;99.90;;;;;;5076440;28;20210;-80
2023/09/15 14:44:17;;;;;;;3.60;2.08;;;28.20;99.90;;;;;;5073642;28;20206;-76
2023/09/15 14:46:45;;;;;;;3.28;2.78;;;27.90;99.90;;;;;;5092628;28;20233;-82
2023/09/15 14:49:13;;;;;;;3.72;3.00;;;27.90;99.90;;;;;;5086614;28;20613;-82
2023/09/15 14:51:44;;;;;;;2.88;2.47;;;27.70;99.90;;;;;;5079694;28;20222;-75
2023/09/15 14:54:11;;;;;;;5.97;5.10;;;27.60;99.90;;;;;;5085328;28;20201;-81
2023/09/15 14:56:39;;;;;;;3.10;2.58;;;27.70;99.90;;;;;;5089199;28;20288;-87
2023/09/15 14:59:06;;;;;;;3.88;2.47;;;27.70;99.90;;;;;;5084063;28;20242;-82
2023/09/15 15:01:33;;;;;;;3.95;3.15;;;27.60;99.90;;;;;;5086483;28;20246;-78
2023/09/15 15:04:01;;;;;;;3.00;2.70;;;27.50;99.90;;;;;;5084364;28;20221;-81
2023/09/15 15:06:28;;;;;;;2.90;2.67;;;27.50;99.90;;;;;;5075583;28;20238;-82
2023/09/15 15:08:55;;;;;;;3.20;2.42;;;27.50;99.90;;;;;;5085738;28;20241;-78
2023/09/15 15:11:22;;;;;;;4.82;3.03;;;27.50;99.90;;;;;;5088980;28;20242;-82
2023/09/15 15:13:50;;;;;;;5.30;2.42;;;27.30;99.90;;;;;;5085464;28;20237;-82
2023/09/15 15:16:17;;;;;;;3.55;2.17;;;27.50;99.90;;;;;;5092809;28;20247;-81
2023/09/15 15:18:45;;;;;;;3.20;2.90;;;27.50;99.90;;;;;;5083097;28;20241;-83
2023/09/15 15:21:14;;;;;;;2.85;2.65;;;27.40;99.90;;;;;;5092783;28;20217;-80
2023/09/15 15:23:41;;;;;;;3.65;2.13;;;27.30;99.90;;;;;;5092394;28;20330;-79
2023/09/15 15:26:08;;;;;;;3.28;2.22;;;27.30;99.90;;;;;;5091942;28;20312;-77
2023/09/15 15:28:36;;;;;;;3.22;2.22;;;27.10;99.90;;;;;;5090338;28;20695;-80
2023/09/15 15:31:10;;;;;;;2.88;2.65;;;27.10;99.90;;;;;;5091167;28;20201;-76
2023/09/15 15:33:38;;;;;;;2.88;2.67;;;27.10;99.90;;;;;;5076973;28;20209;-80
2023/09/15 15:36:06;;;;;;;3.83;2.60;;;27.00;99.90;;;;;;5077610;28;20218;-79
2023/09/15 15:38:35;;;;;;;2.80;2.60;;;26.90;99.90;;;;;;5084513;28;20213;-82
2023/09/15 15:41:02;;;;;;;3.35;2.28;;;26.90;99.90;;;;;;5087753;28;20225;-81
2023/09/15 15:43:30;;;;;;;4.47;2.33;;;27.00;99.90;;;;;;5073843;28;20202;-80
2023/09/15 15:45:58;;;;;;;2.80;2.60;;;27.00;99.90;;;;;;5071973;28;20241;-78
2023/09/15 15:48:25;;;;;;;2.83;2.17;;;26.90;99.90;;;;;;5083747;28;20252;-78
2023/09/15 15:50:53;;;;;;;4.47;2.47;;;26.80;99.90;;;;;;5071632;28;20234;-77
2023/09/15 15:53:20;;;;;;;3.75;2.58;;;26.80;99.90;;;;;;5071570;28;20213;-77
2023/09/15 15:55:49;;;;;;;8.02;2.85;;;26.70;99.90;;;;;;5105766;28;20247;-76
2023/09/15 15:58:16;;;;;;;4.35;2.75;;;26.60;99.90;;;;;;5071767;28;20202;-78
2023/09/15 16:00:43;;;;;;;2.67;2.47;;;26.60;99.90;;;;;;5071651;28;20203;-76
2023/09/15 16:03:10;;;;;;;3.30;2.70;;;26.50;99.90;;;;;;5071616;28;20298;-79
2023/09/15 16:05:37;;;;;;;2.25;2.08;;;26.60;99.90;;;;;;5070782;28;20296;-79
2023/09/15 16:08:04;;;;;;;2.85;2.65;;;26.50;99.90;;;;;;5070508;28;20289;-78
2023/09/15 16:10:34;;;;;;;3.33;3.03;;;26.40;99.90;;;;;;5085422;28;20284;-83
2023/09/15 16:13:04;;;;;;;2.97;2.10;;;26.40;99.90;;;;;;5084966;28;20213;-76
2023/09/15 16:15:31;;;;;;;4.88;2.67;;;26.30;99.90;;;;;;5087120;28;20297;-82
2023/09/15 16:18:07;;;;;;;4.15;2.65;;;26.30;99.90;;;;;;5092102;28;20241;-82
2023/09/15 16:20:35;;;;;;;4.63;2.80;;;26.20;99.90;;;;;;5085062;28;20241;-84
2023/09/15 16:23:07;;;;;;;3.05;2.85;;;26.20;99.90;;;;;;5079271;28;20263;-85
2023/09/15 16:25:34;;;;;;;3.55;2.30;;;26.10;99.90;;;;;;5086627;28;20636;-80
2023/09/15 16:28:03;;;;;;;3.60;2.25;;;26.00;99.90;;;;;;5084868;28;20234;-75
2023/09/15 16:30:30;;;;;;;2.40;2.20;;;26.00;99.90;;;;;;5090009;28;20630;-75
2023/09/15 16:32:57;;;;;;;3.63;2.10;;;26.00;99.90;;;;;;5088102;28;20194;-75
2023/09/15 16:35:24;;;;;;;4.28;2.60;;;26.00;99.90;;;;;;5090093;28;20587;-76
2023/09/15 16:37:51;;;;;;;3.28;2.03;;;26.10;99.90;;;;;;5090870;28;20229;-74
2023/09/15 16:40:18;;;;;;;2.42;2.22;;;25.90;99.90;;;;;;5088590;28;20228;-75
2023/09/15 16:42:45;;;;;;;5.20;2.80;;;25.80;99.90;;;;;;5090327;28;20292;-75
2023/09/15 16:45:13;;;;;;;5.85;2.50;;;25.90;99.90;;;;;;5084207;28;20202;-76
2023/09/15 16:47:40;;;;;;;2.58;2.40;;;25.80;99.90;;;;;;5084329;28;20718;-81
2023/09/15 16:50:08;;;;;;;2.55;2.35;;;25.70;99.90;;;;;;5071436;28;20241;-87
2023/09/15 16:52:35;;;;;;;2.72;2.53;;;25.70;99.90;;;;;;5074277;28;20210;-83
2023/09/15 16:55:02;;;;;;;3.30;2.05;;;25.60;99.90;;;;;;5090647;28;20232;-83
2023/09/15 16:57:30;;;;;;;2.85;2.17;;;25.60;99.90;;;;;;5090804;28;20201;-84
2023/09/15 16:59:58;;;;;;;4.05;2.67;;;25.50;99.90;;;;;;5073143;28;20206;-85
2023/09/15 17:02:26;;;;;;;3.72;3.00;;;25.40;99.90;;;;;;5070569;28;20202;-86
2023/09/15 17:04:55;;;;;;;2.20;2.00;;;25.40;99.90;;;;;;5076940;28;20237;-84
2023/09/15 17:07:23;;;;;;;3.67;2.60;;;25.30;99.90;;;;;;5090450;28;20241;-86
2023/09/15 17:09:50;;;;;;;3.60;2.28;;;25.30;99.90;;;;;;5087630;28;20279;-79
2023/09/15 17:12:17;;;;;;;2.65;2.38;;;25.20;99.90;;;;;;5084083;28;20252;-78
2023/09/15 17:14:44;;;;;;;2.88;2.58;;;25.10;99.90;;;;;;5075260;28;20236;-78
2023/09/15 17:17:11;;;;;;;2.70;2.22;;;25.10;99.90;;;;;;5090187;28;20208;-79
2023/09/15 17:19:39;;;;;;;3.05;2.58;;;25.10;99.90;;;;;;5090125;28;20764;-77
2023/09/15 17:22:06;;;;;;;2.10;1.90;;;25.10;99.90;;;;;;5090159;28;20212;-78
2023/09/15 17:24:33;;;;;;;3.22;2.65;;;25.10;99.90;;;;;;5082439;28;20240;-78
2023/09/15 17:27:01;;;;;;;4.10;2.80;;;25.00;99.90;;;;;;5090279;28;20225;-79
2023/09/15 17:29:28;;;;;;;2.97;2.60;;;25.00;99.90;;;;;;5094194;28;20232;-78
2023/09/15 17:31:55;;;;;;;3.25;2.80;;;25.00;99.90;;;;;;5094543;28;20233;-76
2023/09/15 17:34:22;;;;;;;3.75;2.63;;;24.90;99.90;;;;;;5094600;28;20259;-77
2023/09/15 17:36:52;;;;;;;3.92;2.60;;;24.80;99.90;;;;;;5093362;28;20746;-77
2023/09/15 17:39:19;;;;;;;2.75;2.47;;;24.70;99.90;;;;;;5091641;28;20234;-73
2023/09/15 17:41:46;;;;;;;3.10;2.80;;;24.70;99.90;;;;;;5093176;28;20667;-76
2023/09/15 17:44:13;;;;;;;3.05;2.33;;;24.60;99.90;;;;;;5084913;28;20253;-76
2023/09/15 17:46:40;;;;;;;3.30;2.40;;;24.60;99.90;;;;;;5073719;28;20233;-76
2023/09/15 17:49:06;;;;;;;3.47;2.45;;;24.50;99.90;;;;;;5080025;28;20228;-75
2023/09/15 17:51:33;;;;;;;4.30;2.53;;;24.50;99.90;;;;;;5089454;28;20221;-76
2023/09/15 17:54:02;;;;;;;2.10;2.00;;;24.50;99.90;;;;;;5089898;28;20225;-77
2023/09/15 17:56:29;;;;;;;3.13;2.83;;;24.40;99.90;;;;;;5090211;28;20729;-75
2023/09/15 17:58:56;;;;;;;4.40;3.05;;;24.40;99.90;;;;;;5088126;28;20642;-75
2023/09/15 18:01:23;;;;;;;3.05;2.45;;;24.30;99.90;;;;;;5083723;28;20208;-77
2023/09/15 18:03:50;;;;;;;2.95;2.75;;;24.40;99.90;;;;;;5111433;28;20300;-75
2023/09/15 18:06:18;;;;;;;3.00;2.70;;;24.30;99.90;;;;;;5091955;28;20283;-75
2023/09/15 18:08:46;;;;;;;5.80;2.80;;;24.30;99.90;;;;;;5085384;28;20256;-77
2023/09/15 18:11:16;;;;;;;2.45;2.25;;;24.30;99.90;;;;;;5083329;28;20396;-78
2023/09/15 18:13:43;;;;;;;2.65;2.30;;;24.30;99.90;;;;;;5092516;28;20202;-77
2023/09/15 18:16:10;;;;;;;4.53;2.88;;;24.20;99.90;;;;;;5088977;28;20229;-76
2023/09/15 18:18:36;;;;;;;3.72;2.53;;;24.20;99.90;;;;;;5087802;28;20249;-77
2023/09/15 18:21:03;;;;;;;3.63;3.20;;;24.20;99.90;;;;;;5073660;28;20691;-76
2023/09/15 18:23:30;;;;;;;3.53;2.53;;;24.10;99.90;;;;;;5073194;28;20206;-77
2023/09/15 18:25:57;;;;;;;4.20;2.20;;;24.00;99.90;;;;;;5082289;28;20292;-74
2023/09/15 18:28:26;;;;;;;3.35;2.58;;;24.00;99.90;;;;;;5086501;28;20328;-76
2023/09/15 18:30:54;;;;;;;2.58;2.38;;;23.90;99.90;;;;;;5086181;28;20305;-76
2023/09/15 18:33:21;;;;;;;3.13;2.75;;;23.90;99.90;;;;;;5093205;28;20198;-76
2023/09/15 18:35:49;;;;;;;3.53;2.85;;;23.80;99.90;;;;;;5093753;28;20240;-76
2023/09/15 18:38:16;;;;;;;3.85;3.00;;;23.80;99.90;;;;;;5093631;28;20212;-75
2023/09/15 18:40:43;;;;;;;2.15;1.95;;;23.80;99.90;;;;;;5073270;28;20237;-76
2023/09/15 18:43:11;;;;;;;3.95;2.90;;;23.70;99.90;;;;;;5073524;28;20233;-76
2023/09/15 18:45:41;;;;;;;5.72;3.47;;;23.50;99.90;;;;;;5079488;28;20769;-75
2023/09/15 18:48:08;;;;;;;7.68;2.53;;;23.50;99.90;;;;;;5093159;28;20237;-76
2023/09/15 18:50:35;;;;;;;4.20;1.92;;;23.50;99.90;;;;;;5077461;28;20289;-75
2023/09/15 18:53:02;;;;;;;5.63;2.22;;;23.40;99.90;;;;;;5072996;28;20233;-76
2023/09/15 18:55:29;;;;;;;5.38;2.35;;;23.40;99.90;;;;;;5077129;28;20240;-76
2023/09/15 18:57:56;;;;;;;2.50;2.30;;;23.30;99.90;;;;;;5089989;28;20296;-76
2023/09/15 19:00:24;;;;;;;4.95;3.55;;;23.30;99.90;;;;;;5081373;28;20262;-73
2023/09/15 19:02:52;;;;;;;2.25;2.15;;;23.30;99.90;;;;;;5085623;28;20215;-74
2023/09/15 19:05:20;;;;;;;3.90;2.42;;;23.20;99.90;;;;;;5092748;28;20655;-76
2023/09/15 19:07:46;;;;;;;3.67;2.40;;;23.20;99.90;;;;;;5072781;28;20320;-73
2023/09/15 19:10:14;;;;;;;2.35;2.15;;;23.20;99.90;;;;;;5073243;28;20237;-74
2023/09/15 19:12:42;;;;;;;2.53;2.13;;;23.20;99.90;;;;;;5072311;28;20224;-74
2023/09/15 19:15:10;;;;;;;3.92;2.97;;;23.10;99.90;;;;;;5072552;28;20297;-74
2023/09/15 19:17:37;;;;;;;1.92;1.83;;;23.00;99.90;;;;;;5072188;28;20233;-74
2023/09/15 19:20:07;;;;;;;3.65;2.65;;;22.90;99.90;;;;;;5072326;28;20313;-73
2023/09/15 19:22:33;;;;;;;2.15;2.05;;;22.80;99.90;;;;;;5072179;28;20245;-74
2023/09/15 19:25:00;;;;;;;2.53;2.08;;;22.70;99.90;;;;;;5072197;28;20241;-74
2023/09/15 19:27:27;;;;;;;5.00;2.85;;;22.60;99.90;;;;;;5081482;28;20801;-73
2023/09/15 19:29:56;;;;;;;1.65;1.55;;;22.50;99.90;;;;;;5072270;28;20202;-73
2023/09/15 19:32:23;;;;;;;4.78;2.13;;;22.40;99.90;;;;;;5079262;28;20193;-75
2023/09/15 19:34:50;;;;;;;2.35;2.25;;;22.40;99.90;;;;;;5092186;28;20206;-74
2023/09/15 19:37:20;;;;;;;3.03;2.40;;;22.30;99.90;;;;;;5092645;28;20258;-75
2023/09/15 19:39:47;;;;;;;2.28;2.15;;;22.30;99.90;;;;;;5092757;28;20197;-75
2023/09/15 19:42:13;;;;;;;8.13;3.95;;;22.20;99.90;;;;;;5092351;28;20205;-74
2023/09/15 19:44:40;;;;;;;9.55;4.22;;;21.10;99.90;;;;;;5091963;28;20260;-75
2023/09/15 19:47:08;;;;;;;9.75;3.97;;;21.50;1.00;;;;;;5087529;28;20269;-72
2023/09/15 19:49:36;;;;;;;4.72;4.05;;;20.20;1.00;;;;;;5073099;28;20214;-74
2023/09/15 19:52:03;;;;;;;8.15;4.60;;;21.70;1.00;;;;;;5086882;28;20301;-73
2023/09/15 19:54:31;;;;;;;4.68;4.18;;;21.90;1.00;;;;;;5071612;28;20237;-74
2023/09/15 19:56:58;;;;;;;5.85;4.30;;;19.90;1.00;;;;;;5071612;28;20297;-72
2023/09/15 19:59:25;;;;;;;5.45;4.43;;;20.30;1.00;;;;;;5071535;28;20298;-73
2023/09/15 20:01:52;;;;;;;6.65;5.28;;;20.50;1.00;;;;;;5088382;28;20244;-73
2023/09/15 20:04:19;;;;;;;7.25;5.07;;;20.60;94.70;;;;;;5091749;28;20740;-72
2023/09/15 20:06:45;;;;;;;6.25;5.22;;;21.50;85.80;;;;;;5092108;28;20652;-73
2023/09/15 20:09:12;;;;;;;5.45;4.93;;;21.60;65.60;;;;;;5083143;28;20284;-72
2023/09/15 20:11:40;;;;;;;5.72;5.18;;;21.10;1.00;;;;;;5071034;28;20305;-73
2023/09/15 20:14:07;;;;;;;5.97;5.38;;;20.90;1.00;;;;;;5078664;28;20202;-73
2023/09/15 20:16:34;;;;;;;7.70;5.93;;;20.20;1.00;;;;;;5087776;28;20292;-74
2023/09/15 20:19:01;;;;;;;7.13;4.60;;;21.30;1.00;;;;;;5084765;28;20296;-74
2023/09/15 20:21:30;;;;;;;6.82;6.25;;;20.40;1.00;;;;;;5091115;28;20270;-72
2023/09/15 20:23:57;;;;;;;6.10;5.53;;;20.50;1.00;;;;;;5090529;28;20278;-72
2023/09/15 20:26:24;;;;;;;7.13;5.60;;;20.50;1.00;;;;;;5076955;28;20256;-75
2023/09/15 20:28:52;;;;;;;5.65;5.10;;;20.20;1.00;;;;;;5071076;28;20311;-75
2023/09/15 20:31:19;;;;;;;6.07;5.45;;;20.10;99.90;;;;;;5071125;28;20297;-75
2023/09/15 20:33:46;;;;;;;6.15;5.70;;;20.10;99.90;;;;;;5071620;28;20214;-73
2023/09/15 20:36:13;;;;;;;5.75;5.25;;;20.40;98.10;;;;;;5071088;28;20206;-72
2023/09/15 20:38:42;;;;;;;6.82;4.50;;;20.10;1.00;;;;;;5070899;28;20324;-74
2023/09/15 20:41:09;;;;;;;5.35;4.75;;;20.00;1.00;;;;;;5071122;28;20217;-75
2023/09/15 20:43:36;;;;;;;7.25;5.68;;;19.90;99.90;;;;;;5070619;28;20248;-75
2023/09/15 20:46:04;;;;;;;4.55;4.20;;;19.90;99.90;;;;;;5071239;28;20293;-72
2023/09/15 20:48:31;;;;;;;8.10;5.05;;;19.80;1.00;;;;;;5070485;28;20326;-76
2023/09/15 20:50:58;;;;;;;4.65;4.20;;;19.80;1.00;;;;;;5080801;28;20267;-74
2023/09/15 20:53:25;;;;;;;5.25;4.75;;;20.10;1.00;;;;;;5070527;28;20241;-73
2023/09/15 20:55:51;;;;;;;4.38;3.92;;;19.80;99.90;;;;;;5087513;28;20289;-73
2023/09/15 20:58:19;;;;;;;3.92;3.63;;;19.80;46.20;;;;;;5090835;28;20296;-73
2023/09/15 21:00:48;;;;;;;4.60;4.22;;;19.90;1.00;;;;;;5091384;28;20197;-74
2023/09/15 21:03:16;;;;;;;4.80;3.97;;;20.10;99.90;;;;;;5091019;28;20201;-74
2023/09/15 21:05:43;;;;;;;4.05;3.65;;;20.00;99.90;;;;;;5090674;28;20229;-73
2023/09/15 21:08:10;;;;;;;3.50;3.20;;;19.90;1.00;;;;;;5090891;28;20279;-72
2023/09/15 21:10:36;;;;;;;3.53;2.90;;;19.80;1.00;;;;;;5090335;28;20670;-73
2023/09/15 21:13:04;;;;;;;4.75;4.35;;;20.00;99.90;;;;;;5091132;28;20233;-73
2023/09/15 21:15:30;;;;;;;5.70;3.60;;;19.90;1.00;;;;;;5090640;28;20284;-74
2023/09/15 21:17:57;;;;;;;3.72;3.42;;;19.90;1.00;;;;;;5090986;28;20293;-72
2023/09/15 21:20:25;;;;;;;4.63;3.63;;;20.10;1.00;;;;;;5087718;28;20243;-73
2023/09/15 21:22:53;;;;;;;3.70;3.40;;;20.20;1.00;;;;;;5080970;28;20296;-73
2023/09/15 21:25:20;;;;;;;3.80;3.50;;;20.20;1.00;;;;;;5083283;28;20665;-71
2023/09/15 21:27:47;;;;;;;3.70;3.25;;;20.40;1.00;;;;;;5085411;28;20768;-72
2023/09/15 21:30:14;;;;;;;4.78;4.20;;;20.40;1.00;;;;;;5074559;28;20297;-72
2023/09/15 21:32:41;;;;;;;3.30;3.03;;;20.40;1.00;;;;;;5087927;28;20211;-72
2023/09/15 21:35:09;;;;;;;3.75;3.30;;;20.40;1.00;;;;;;5089347;28;20312;-72
2023/09/15 21:37:38;;;;;;;3.75;3.13;;;20.40;1.00;;;;;;5083530;28;20209;-72
2023/09/15 21:40:05;;;;;;;4.38;3.58;;;20.40;1.00;;;;;;5089324;28;20627;-71
2023/09/15 21:42:32;;;;;;;2.83;2.63;;;20.10;1.00;;;;;;5090477;28;20292;-74
2023/09/15 21:44:59;;;;;;;3.47;3.20;;;20.00;1.00;;;;;;5089175;28;20212;-71
2023/09/15 21:47:26;;;;;;;3.00;2.75;;;20.00;1.00;;;;;;5090303;28;20239;-71
2023/09/15 21:49:54;;;;;;;4.40;3.25;;;20.10;99.90;;;;;;5090579;28;20288;-70
2023/09/15 21:52:21;;;;;;;2.78;2.58;;;19.80;1.00;;;;;;5088000;28;20201;-70
2023/09/15 21:54:49;;;;;;;2.90;2.67;;;19.70;99.90;;;;;;5089031;28;20233;-72